createdAt,value
2023-04-21T00:00:53.837Z,16.80
2023-04-21T00:03:24.430Z,17.33
2023-04-21T00:05:51.982Z,16.02
2023-04-21T00:08:19.257Z,15.48
2023-04-21T00:10:49.469Z,16.00
2023-04-21T00:13:16.609Z,15.75
2023-04-21T00:15:43.793Z,15.65
2023-04-21T00:18:10.960Z,14.60
2023-04-21T00:20:39.312Z,15.57
2023-04-21T00:23:06.246Z,14.63
2023-04-21T00:25:33.079Z,16.10
2023-04-21T00:27:59.908Z,15.82
2023-04-21T00:30:26.892Z,16.02
2023-04-21T00:32:53.777Z,16.00
2023-04-21T00:35:20.620Z,14.55
2023-04-21T00:37:47.460Z,15.35
2023-04-21T00:40:14.430Z,15.27
2023-04-21T00:42:41.366Z,14.27
2023-04-21T00:45:09.312Z,13.95
2023-04-21T00:47:36.458Z,14.05
2023-04-21T00:50:04.480Z,14.80
2023-04-21T00:52:32.171Z,15.32
2023-04-21T00:55:00.314Z,14.07
2023-04-21T00:57:28.950Z,13.55
2023-04-21T00:59:55.893Z,13.60
2023-04-21T01:02:23.496Z,14.23
2023-04-21T01:04:50.814Z,15.32
2023-04-21T01:07:17.850Z,16.67
2023-04-21T01:09:44.825Z,15.90
2023-04-21T01:12:12.665Z,15.48
2023-04-21T01:14:40.962Z,15.27
2023-04-21T01:17:08.789Z,14.55
2023-04-21T01:19:42.229Z,14.52
2023-04-21T01:22:13.429Z,13.85
2023-04-21T01:24:43.560Z,14.82
2023-04-21T01:27:12.780Z,16.02
2023-04-21T01:29:42.368Z,15.93
2023-04-21T01:32:18.363Z,16.65
2023-04-21T01:34:45.841Z,15.23
2023-04-21T01:37:15.002Z,15.48
2023-04-21T01:39:45.659Z,15.65
2023-04-21T01:42:13.670Z,15.07
2023-04-21T01:44:40.900Z,14.10
2023-04-21T01:47:08.348Z,14.23
2023-04-21T01:49:35.154Z,14.93
2023-04-21T01:52:02.247Z,15.50
2023-04-21T01:54:29.499Z,15.27
2023-04-21T01:56:56.526Z,14.82
2023-04-21T01:59:23.461Z,14.75
2023-04-21T02:01:50.512Z,14.82
2023-04-21T02:04:18.143Z,14.70
2023-04-21T02:06:45.043Z,14.27
2023-04-21T02:09:12.061Z,14.32
2023-04-21T02:11:39.137Z,15.27
2023-04-21T02:14:06.006Z,14.82
2023-04-21T02:16:32.980Z,15.52
2023-04-21T02:18:59.945Z,15.77
2023-04-21T02:21:27.949Z,15.45
2023-04-21T02:23:54.995Z,15.75
2023-04-21T02:26:22.015Z,15.77
2023-04-21T02:28:49.716Z,16.27
2023-04-21T02:31:17.753Z,16.38
2023-04-21T02:33:45.200Z,16.13
2023-04-21T02:36:12.983Z,15.50
2023-04-21T02:38:39.947Z,16.70
2023-04-21T02:41:06.971Z,16.92
2023-04-21T02:43:33.958Z,16.27
2023-04-21T02:46:06.793Z,16.45
2023-04-21T02:48:34.677Z,19.63
2023-04-21T02:51:01.820Z,23.92
2023-04-21T02:53:29.125Z,21.23
2023-04-21T02:55:56.442Z,18.63
2023-04-21T02:58:23.668Z,18.10
2023-04-21T03:00:51.715Z,17.48
2023-04-21T03:03:19.068Z,18.17
2023-04-21T03:05:46.690Z,19.30
2023-04-21T03:08:16.047Z,19.83
2023-04-21T03:10:42.911Z,20.42
2023-04-21T03:13:12.019Z,36.30
2023-04-21T03:15:44.175Z,31.63
2023-04-21T03:18:11.484Z,28.23
2023-04-21T03:20:38.370Z,28.48
2023-04-21T03:23:05.451Z,25.70
2023-04-21T03:25:32.374Z,24.63
2023-04-21T03:27:59.268Z,24.55
2023-04-21T03:30:26.487Z,22.98
2023-04-21T03:32:55.515Z,21.67
2023-04-21T03:35:22.822Z,20.08
2023-04-21T03:37:52.413Z,21.30
2023-04-21T03:40:19.220Z,25.67
2023-04-21T03:42:46.128Z,20.20
2023-04-21T03:45:13.238Z,20.75
2023-04-21T03:47:40.408Z,21.60
2023-04-21T03:50:07.954Z,22.85
2023-04-21T03:52:34.895Z,20.75
2023-04-21T03:55:02.049Z,21.67
2023-04-21T03:57:29.012Z,22.45
2023-04-21T03:59:56.000Z,21.88
2023-04-21T04:02:23.122Z,21.77
2023-04-21T04:04:50.679Z,22.33
2023-04-21T04:07:17.770Z,23.83
2023-04-21T04:09:44.777Z,22.85
2023-04-21T04:12:11.928Z,23.10
2023-04-21T04:14:39.592Z,22.85
2023-04-21T04:17:06.680Z,23.48
2023-04-21T04:19:33.978Z,22.48
2023-04-21T04:22:01.488Z,22.05
2023-04-21T04:24:28.649Z,22.73
2023-04-21T04:26:55.856Z,31.13
2023-04-21T04:29:23.103Z,25.95
2023-04-21T04:31:53.398Z,24.50
2023-04-21T04:34:20.723Z,25.08
2023-04-21T04:36:48.212Z,25.15
2023-04-21T04:39:16.683Z,26.17
2023-04-21T04:41:43.676Z,26.58
2023-04-21T04:44:11.325Z,25.40
2023-04-21T04:46:39.534Z,25.65
2023-04-21T04:49:06.420Z,25.00
2023-04-21T04:51:33.792Z,24.67
2023-04-21T04:54:01.161Z,25.27
2023-04-21T04:59:11.075Z,25.27
2023-04-21T05:01:40.151Z,25.80
2023-04-21T05:04:07.350Z,26.55
2023-04-21T05:06:34.484Z,26.90
2023-04-21T05:09:01.569Z,27.75
2023-04-21T05:11:28.447Z,26.65
2023-04-21T05:13:55.690Z,28.95
2023-04-21T05:16:22.727Z,29.63
2023-04-21T05:18:54.159Z,28.27
2023-04-21T05:21:28.495Z,27.98
2023-04-21T05:23:59.556Z,29.20
2023-04-21T05:26:27.854Z,28.80
2023-04-21T05:28:58.866Z,29.40
2023-04-21T05:31:26.403Z,28.05
2023-04-21T05:33:53.908Z,28.75
2023-04-21T05:36:21.067Z,27.63
2023-04-21T05:38:48.184Z,29.52
2023-04-21T05:41:16.049Z,30.08
2023-04-21T05:43:42.954Z,29.35
2023-04-21T05:46:11.319Z,28.85
2023-04-21T05:48:38.647Z,29.52
2023-04-21T05:51:18.380Z,30.55
2023-04-21T05:53:46.630Z,28.67
2023-04-21T05:56:14.777Z,29.58
2023-04-21T05:58:41.964Z,31.85
2023-04-21T06:01:09.223Z,31.17
2023-04-21T06:03:37.165Z,30.67
2023-04-21T06:06:06.175Z,32.15
2023-04-21T06:08:33.610Z,32.58
2023-04-21T06:11:00.910Z,31.70
2023-04-21T06:13:27.912Z,33.03
2023-04-21T06:15:55.389Z,31.17
2023-04-21T06:18:22.494Z,31.80
2023-04-21T06:20:53.811Z,32.53
2023-04-21T06:23:21.657Z,33.38
2023-04-21T06:26:00.364Z,33.60
2023-04-21T06:28:27.323Z,32.50
2023-04-21T06:30:56.905Z,34.80
2023-04-21T06:33:23.959Z,33.38
2023-04-21T06:35:50.872Z,33.22
2023-04-21T06:38:17.753Z,32.50
2023-04-21T06:40:45.201Z,32.08
2023-04-21T06:43:12.174Z,32.85
2023-04-21T06:45:39.052Z,34.85
2023-04-21T06:48:06.339Z,34.38
2023-04-21T06:50:33.292Z,33.45
2023-04-21T06:53:00.276Z,34.35
2023-04-21T06:55:27.340Z,34.63
2023-04-21T06:57:54.349Z,35.20
2023-04-21T07:00:21.487Z,32.15
2023-04-21T07:02:50.468Z,31.70
2023-04-21T07:05:17.818Z,32.83
2023-04-21T07:07:44.861Z,33.53
2023-04-21T07:10:11.715Z,32.13
2023-04-21T07:12:38.621Z,31.27
2023-04-21T07:15:06.462Z,29.60
2023-04-21T07:17:33.346Z,29.95
2023-04-21T07:20:00.276Z,28.85
2023-04-21T07:22:27.301Z,28.75
2023-04-21T07:24:54.148Z,27.70
2023-04-21T07:27:21.025Z,27.67
2023-04-21T07:29:47.968Z,27.67
2023-04-21T07:32:14.776Z,28.38
2023-04-21T07:34:41.641Z,24.65
2023-04-21T07:37:08.485Z,25.25
2023-04-21T07:39:35.383Z,26.10
2023-04-21T07:42:02.368Z,24.75
2023-04-21T07:44:29.521Z,24.65
2023-04-21T07:46:56.526Z,23.27
2023-04-21T07:49:23.657Z,24.10
2023-04-21T07:51:50.881Z,22.80
2023-04-21T07:54:17.798Z,23.80
2023-04-21T07:56:44.695Z,22.55
2023-04-21T07:59:11.545Z,21.25
2023-04-21T08:01:38.590Z,21.35
2023-04-21T08:04:06.798Z,20.55
2023-04-21T08:06:33.885Z,21.40
2023-04-21T08:09:01.084Z,20.60
2023-04-21T08:11:28.695Z,19.60
2023-04-21T08:13:55.494Z,19.58
2023-04-21T08:16:22.574Z,18.85
2023-04-21T08:18:49.799Z,19.77
2023-04-21T08:21:16.847Z,18.83
2023-04-21T08:23:43.854Z,18.48
2023-04-21T08:26:11.032Z,19.38
2023-04-21T08:28:38.053Z,18.45
2023-04-21T08:31:05.432Z,17.58
2023-04-21T08:33:32.483Z,18.73
2023-04-21T08:36:05.791Z,18.70
2023-04-21T08:38:39.764Z,18.42
2023-04-21T08:41:07.663Z,18.25
2023-04-21T08:43:34.765Z,19.13
2023-04-21T08:46:06.812Z,20.52
2023-04-21T08:48:37.501Z,19.77
2023-04-21T08:51:06.857Z,19.70
2023-04-21T08:53:33.762Z,19.65
2023-04-21T08:56:10.732Z,19.70
2023-04-21T08:58:38.833Z,18.98
2023-04-21T09:01:05.903Z,19.45
2023-04-21T09:03:34.409Z,19.80
2023-04-21T09:06:41.293Z,20.20
2023-04-21T09:09:08.195Z,19.95
2023-04-21T09:11:35.207Z,19.15
2023-04-21T09:14:02.105Z,20.75
2023-04-21T09:16:33.393Z,19.77
2023-04-21T09:19:01.195Z,20.50
2023-04-21T09:21:32.020Z,18.75
2023-04-21T09:24:06.056Z,19.85
2023-04-21T09:26:35.189Z,19.08
2023-04-21T09:29:07.334Z,19.95
2023-04-21T09:31:36.452Z,18.90
2023-04-21T09:34:03.454Z,18.52
2023-04-21T09:36:32.213Z,19.50
2023-04-21T09:41:34.194Z,19.40
2023-04-21T09:44:05.001Z,18.55
2023-04-21T09:46:37.142Z,16.88
2023-04-21T09:49:05.801Z,18.90
2023-04-21T09:51:56.401Z,17.52
2023-04-21T09:54:29.512Z,17.92
2023-04-21T09:57:02.863Z,17.58
2023-04-21T09:59:36.743Z,15.90
2023-04-21T10:02:08.808Z,16.23
2023-04-21T10:04:39.037Z,15.70
2023-04-21T10:07:06.856Z,16.10
2023-04-21T10:09:41.626Z,18.35
2023-04-21T10:12:10.049Z,16.33
2023-04-21T10:14:37.212Z,15.90
2023-04-21T10:17:05.219Z,18.38
2023-04-21T10:19:36.391Z,16.02
2023-04-21T10:22:03.286Z,15.07
2023-04-21T10:24:31.385Z,15.57
2023-04-21T10:26:59.715Z,15.27
2023-04-21T10:29:40.291Z,15.27
2023-04-21T10:32:11.495Z,17.25
2023-04-21T10:34:39.260Z,15.65
2023-04-21T10:37:06.265Z,16.13
2023-04-21T10:39:37.439Z,14.23
2023-04-21T10:42:13.594Z,15.50
2023-04-21T10:44:58.585Z,13.13
2023-04-21T10:47:44.478Z,13.43
2023-04-21T10:50:23.983Z,12.52
2023-04-21T10:53:13.343Z,12.73
2023-04-21T10:55:42.443Z,14.02
2023-04-21T10:58:10.053Z,12.20
2023-04-21T11:00:41.070Z,12.27
2023-04-21T11:03:08.587Z,11.70
2023-04-21T11:05:41.516Z,12.15
2023-04-21T11:08:14.689Z,13.38
2023-04-21T11:10:57.400Z,13.32
2023-04-21T11:13:26.674Z,12.68
2023-04-21T11:16:07.642Z,12.63
2023-04-21T11:18:42.747Z,12.75
2023-04-21T11:21:24.518Z,12.60
2023-04-21T11:23:56.212Z,12.43
2023-04-21T11:26:40.209Z,11.55
2023-04-21T11:29:08.689Z,12.02
2023-04-21T11:31:37.735Z,11.88
2023-04-21T11:34:07.028Z,12.32
2023-04-21T11:36:39.672Z,12.45
2023-04-21T11:39:11.021Z,12.30
2023-04-21T11:41:45.449Z,12.00
2023-04-21T11:44:14.756Z,12.40
2023-04-21T11:46:46.745Z,12.38
2023-04-21T11:49:17.304Z,11.95
2023-04-21T11:51:46.854Z,12.85
2023-04-21T11:54:14.717Z,12.32
2023-04-21T11:56:43.426Z,11.77
2023-04-21T11:59:24.992Z,12.80
2023-04-21T12:01:54.642Z,11.50
2023-04-21T12:04:24.174Z,11.18
2023-04-21T12:07:02.885Z,12.10
2023-04-21T12:09:30.462Z,12.32
2023-04-21T12:11:59.174Z,12.35
2023-04-21T12:14:29.244Z,12.38
2023-04-21T12:16:58.103Z,12.75
2023-04-21T12:19:36.234Z,12.52
2023-04-21T12:22:08.555Z,12.15
2023-04-21T12:24:36.800Z,11.18
2023-04-21T12:27:04.989Z,10.98
2023-04-21T12:29:32.161Z,11.85
2023-04-21T12:31:59.380Z,11.98
2023-04-21T12:34:26.456Z,11.57
2023-04-21T12:36:53.366Z,10.15
2023-04-21T12:39:22.001Z,10.40
2023-04-21T12:41:49.047Z,9.88
2023-04-21T12:44:15.966Z,10.38
2023-04-21T12:46:42.790Z,9.45
2023-04-21T12:49:11.162Z,9.90
2023-04-21T12:51:38.228Z,9.85
2023-04-21T12:54:05.332Z,10.50
2023-04-21T12:56:32.404Z,10.52
2023-04-21T12:58:59.457Z,9.80
2023-04-21T13:01:26.487Z,8.90
2023-04-21T13:03:54.004Z,8.43
2023-04-21T13:06:21.088Z,8.48
2023-04-21T13:08:48.267Z,8.50
2023-04-21T13:11:15.426Z,8.13
2023-04-21T13:13:42.518Z,7.65
2023-04-21T13:16:09.405Z,7.45
2023-04-21T13:18:37.586Z,6.85
2023-04-21T13:21:04.600Z,7.70
2023-04-21T13:23:31.593Z,7.75
2023-04-21T13:25:58.802Z,7.75
2023-04-21T13:28:26.859Z,7.97
2023-04-21T13:30:54.447Z,7.53
2023-04-21T13:33:21.974Z,7.80
2023-04-21T13:35:49.519Z,7.50
2023-04-21T13:38:16.805Z,7.82
2023-04-21T13:40:43.679Z,7.90
2023-04-21T13:43:10.987Z,8.05
2023-04-21T13:45:37.948Z,7.45
2023-04-21T13:48:05.010Z,7.95
2023-04-21T13:50:32.477Z,8.40
2023-04-21T13:52:59.280Z,7.25
2023-04-21T13:55:26.333Z,6.57
2023-04-21T13:57:53.298Z,7.43
2023-04-21T14:00:20.373Z,6.38
2023-04-21T14:02:48.100Z,6.63
2023-04-21T14:05:17.241Z,5.82
2023-04-21T14:07:44.652Z,6.00
2023-04-21T14:10:14.651Z,6.60
2023-04-21T14:12:41.612Z,6.88
2023-04-21T14:15:09.050Z,6.70
2023-04-21T14:17:36.136Z,6.30
2023-04-21T14:20:04.130Z,5.97
2023-04-21T14:22:30.969Z,7.78
2023-04-21T14:24:58.017Z,7.43
2023-04-21T14:27:25.116Z,8.15
2023-04-21T14:29:52.544Z,7.90
2023-04-21T14:32:20.888Z,8.68
2023-04-21T14:34:48.287Z,7.57
2023-04-21T14:37:15.567Z,7.15
2023-04-21T14:39:42.551Z,8.20
2023-04-21T14:42:09.404Z,7.38
2023-04-21T14:44:36.216Z,6.53
2023-04-21T14:47:09.605Z,5.57
2023-04-21T14:49:38.426Z,5.10
2023-04-21T14:52:05.641Z,5.32
2023-04-21T14:54:32.757Z,5.90
2023-04-21T14:57:17.846Z,5.75
2023-04-21T14:59:46.869Z,5.57
2023-04-21T15:02:14.712Z,5.63
2023-04-21T15:04:42.976Z,6.82
2023-04-21T15:07:10.037Z,10.25
2023-04-21T15:09:37.469Z,8.95
2023-04-21T15:12:05.206Z,9.55
2023-04-21T15:14:32.542Z,9.07
2023-04-21T15:16:59.585Z,9.80
2023-04-21T15:19:26.865Z,9.93
2023-04-21T15:21:53.946Z,10.50
2023-04-21T15:24:21.091Z,10.88
2023-04-21T15:26:48.193Z,10.88
2023-04-21T15:29:15.317Z,10.45
2023-04-21T15:31:42.393Z,10.48
2023-04-21T15:34:09.635Z,10.13
2023-04-21T15:36:36.669Z,10.60
2023-04-21T15:39:04.079Z,9.70
2023-04-21T15:41:31.731Z,8.95
2023-04-21T15:43:59.975Z,8.48
2023-04-21T15:46:27.060Z,9.30
2023-04-21T15:48:53.962Z,8.93
2023-04-21T15:51:20.895Z,8.20
2023-04-21T15:53:49.351Z,8.20
2023-04-21T15:56:16.895Z,8.68
2023-04-21T15:58:44.108Z,8.50
2023-04-21T16:01:11.540Z,8.57
2023-04-21T16:03:40.291Z,9.48
2023-04-21T16:06:07.860Z,10.18
2023-04-21T16:08:34.861Z,10.80
2023-04-21T16:11:01.799Z,10.27
2023-04-21T16:13:29.574Z,11.00
2023-04-21T16:15:56.851Z,9.02
2023-04-21T16:18:24.168Z,8.73
2023-04-21T16:20:51.429Z,9.45
2023-04-21T16:23:18.794Z,8.65
2023-04-21T16:25:45.823Z,9.48
2023-04-21T16:28:12.816Z,9.02
2023-04-21T16:30:43.644Z,9.07
2023-04-21T16:33:11.519Z,8.90
2023-04-21T16:35:39.153Z,8.57
2023-04-21T16:38:06.512Z,9.65
2023-04-21T16:40:33.658Z,8.50
2023-04-21T16:43:03.276Z,8.25
2023-04-21T16:45:30.407Z,8.52
2023-04-21T16:47:57.816Z,8.00
2023-04-21T16:50:25.309Z,8.70
2023-04-21T16:52:52.162Z,8.43
2023-04-21T16:55:19.579Z,8.88
2023-04-21T16:57:46.454Z,9.07
2023-04-21T17:00:14.027Z,8.48
2023-04-21T17:02:42.685Z,8.90
2023-04-21T17:05:12.415Z,8.52
2023-04-21T17:07:41.198Z,8.63
2023-04-21T17:10:08.781Z,9.27
2023-04-21T17:12:35.920Z,9.02
2023-04-21T17:15:02.932Z,8.25
2023-04-21T17:17:42.727Z,8.65
2023-04-21T17:20:13.676Z,8.13
2023-04-21T17:22:41.284Z,8.40
2023-04-21T17:25:09.414Z,8.13
2023-04-21T17:27:38.416Z,8.95
2023-04-21T17:30:06.399Z,7.82
2023-04-21T17:32:34.266Z,7.72
2023-04-21T17:35:01.846Z,8.20
2023-04-21T17:37:30.262Z,8.38
2023-04-21T17:39:59.737Z,8.27
2023-04-21T17:42:29.256Z,7.80
2023-04-21T17:44:56.247Z,7.97
2023-04-21T17:47:23.470Z,7.70
2023-04-21T17:49:50.516Z,8.48
2023-04-21T17:52:17.583Z,7.47
2023-04-21T17:54:45.600Z,8.63
2023-04-21T17:57:12.512Z,9.00
2023-04-21T17:59:39.656Z,9.32
2023-04-21T18:02:07.450Z,10.40
2023-04-21T18:04:37.935Z,9.32
2023-04-21T18:07:05.178Z,10.20
2023-04-21T18:09:32.180Z,9.63
2023-04-21T18:11:59.091Z,9.85
2023-04-21T18:14:26.281Z,10.82
2023-04-21T18:16:53.938Z,9.57
2023-04-21T18:19:20.954Z,10.57
2023-04-21T18:21:48.240Z,13.25
2023-04-21T18:24:15.615Z,13.77
2023-04-21T18:26:43.900Z,15.13
2023-04-21T18:29:10.848Z,13.00
2023-04-21T18:31:37.924Z,10.05
2023-04-21T18:34:06.067Z,9.23
2023-04-21T18:36:33.766Z,9.48
2023-04-21T18:39:01.326Z,9.10
2023-04-21T18:41:28.302Z,9.50
2023-04-21T18:43:55.253Z,10.50
2023-04-21T18:46:22.271Z,9.15
2023-04-21T18:48:49.712Z,8.10
2023-04-21T18:51:17.349Z,8.82
2023-04-21T18:53:46.223Z,9.68
2023-04-21T18:56:13.189Z,9.77
2023-04-21T18:58:40.313Z,11.90
2023-04-21T19:01:08.058Z,10.95
2023-04-21T19:03:35.410Z,10.00
2023-04-21T19:06:03.340Z,9.27
2023-04-21T19:08:41.385Z,9.88
2023-04-21T19:11:11.218Z,9.80
2023-04-21T19:13:38.655Z,9.30
2023-04-21T19:16:06.290Z,9.35
2023-04-21T19:18:33.350Z,10.02
2023-04-21T19:21:00.407Z,10.85
2023-04-21T19:23:27.460Z,10.48
2023-04-21T19:25:57.574Z,9.63
2023-04-21T19:28:24.678Z,11.75
2023-04-21T19:30:51.635Z,11.48
2023-04-21T19:33:18.718Z,11.50
2023-04-21T19:35:46.215Z,12.10
2023-04-21T19:38:13.246Z,12.90
2023-04-21T19:40:42.247Z,12.45
2023-04-21T19:43:09.112Z,13.10
2023-04-21T19:45:36.693Z,13.50
2023-04-21T19:48:04.747Z,11.90
2023-04-21T19:50:32.375Z,10.77
2023-04-21T19:52:59.260Z,11.00
2023-04-21T19:55:27.348Z,11.13
2023-04-21T19:57:54.175Z,11.50
2023-04-21T20:00:21.230Z,11.52
2023-04-21T20:02:48.202Z,12.15
2023-04-21T20:05:15.652Z,11.35
2023-04-21T20:07:42.792Z,11.05
2023-04-21T20:10:10.532Z,11.55
2023-04-21T20:12:37.558Z,11.48
2023-04-21T20:15:05.686Z,10.43
2023-04-21T20:17:33.280Z,10.52
2023-04-21T20:20:00.252Z,11.43
2023-04-21T20:22:27.424Z,11.85
2023-04-21T20:24:54.394Z,11.05
2023-04-21T20:27:21.389Z,11.65
2023-04-21T20:29:48.375Z,14.02
2023-04-21T20:32:15.417Z,13.75
2023-04-21T20:34:42.681Z,11.18
2023-04-21T20:37:10.951Z,10.77
2023-04-21T20:39:38.598Z,10.30
2023-04-21T20:42:13.163Z,9.52
2023-04-21T20:44:42.853Z,10.23
2023-04-21T20:47:12.787Z,10.27
2023-04-21T20:49:40.505Z,9.45
2023-04-21T20:52:07.632Z,12.32
2023-04-21T20:54:35.015Z,12.35
2023-04-21T20:57:02.400Z,12.70
2023-04-21T20:59:29.598Z,11.85
2023-04-21T21:01:56.611Z,12.27
2023-04-21T21:04:24.111Z,10.98
2023-04-21T21:06:51.180Z,9.60
2023-04-21T21:09:19.120Z,9.43
2023-04-21T21:11:46.186Z,11.68
2023-04-21T21:14:13.326Z,9.63
2023-04-21T21:16:40.730Z,9.32
2023-04-21T21:19:07.870Z,9.65
2023-04-21T21:21:34.959Z,9.40
2023-04-21T21:24:01.917Z,9.85
2023-04-21T21:26:29.396Z,9.73
2023-04-21T21:28:56.760Z,8.65
2023-04-21T21:31:25.607Z,9.80
2023-04-21T21:33:52.764Z,11.15
2023-04-21T21:36:19.860Z,12.55
2023-04-21T21:38:46.960Z,11.38
2023-04-21T21:41:14.073Z,11.82
2023-04-21T21:43:41.277Z,10.75
2023-04-21T21:46:09.156Z,10.70
2023-04-21T21:48:36.282Z,10.70
2023-04-21T21:51:05.294Z,12.40
2023-04-21T21:53:32.846Z,11.05
2023-04-21T21:56:00.446Z,12.93
2023-04-21T21:58:27.596Z,12.65
2023-04-21T22:00:55.126Z,13.10
2023-04-21T22:03:22.511Z,12.75
2023-04-21T22:05:52.884Z,11.38
2023-04-21T22:08:19.788Z,11.25
2023-04-21T22:10:46.911Z,11.18
2023-04-21T22:13:13.999Z,11.82
2023-04-21T22:15:41.347Z,11.63
2023-04-21T22:18:09.776Z,11.93
2023-04-21T22:20:36.811Z,11.25
2023-04-21T22:23:04.510Z,12.35
2023-04-21T22:25:31.758Z,10.68
2023-04-21T22:27:58.799Z,14.07
2023-04-21T22:30:26.147Z,11.68
2023-04-21T22:32:53.195Z,10.63
2023-04-21T22:35:20.495Z,13.50
2023-04-21T22:37:47.319Z,13.00
2023-04-21T22:40:14.401Z,10.73
2023-04-21T22:42:41.316Z,10.93
2023-04-21T22:45:11.779Z,10.32
2023-04-21T22:47:38.626Z,9.68
2023-04-21T22:50:06.225Z,9.80
2023-04-21T22:52:33.101Z,11.73
2023-04-21T22:55:00.063Z,13.80
2023-04-21T22:57:27.057Z,13.93
2023-04-21T22:59:54.187Z,15.63
2023-04-21T23:02:21.658Z,15.27
2023-04-21T23:04:48.647Z,15.15
2023-04-21T23:07:15.484Z,15.13
2023-04-21T23:09:42.520Z,15.55
2023-04-21T23:12:09.448Z,20.25
2023-04-21T23:14:36.372Z,22.75
2023-04-21T23:17:03.336Z,21.17
2023-04-21T23:19:30.513Z,22.50
2023-04-21T23:21:57.368Z,22.48
2023-04-21T23:24:24.445Z,22.10
2023-04-21T23:26:51.584Z,19.98
2023-04-21T23:29:18.591Z,19.90
2023-04-21T23:31:45.699Z,16.75
2023-04-21T23:34:12.769Z,13.80
2023-04-21T23:36:39.560Z,14.02
2023-04-21T23:39:06.445Z,15.95
2023-04-21T23:41:33.605Z,13.65
2023-04-21T23:44:00.581Z,11.93
2023-04-21T23:46:27.609Z,12.07
2023-04-21T23:48:54.586Z,12.55
2023-04-21T23:51:22.126Z,12.63
2023-04-21T23:53:49.093Z,13.15
2023-04-21T23:56:15.920Z,12.68
2023-04-21T23:58:42.879Z,12.95
